createdAt,value
2022-09-13T00:04:04.225Z,4.18
2022-09-13T00:09:07.277Z,4.60
2022-09-13T00:14:10.430Z,4.40
2022-09-13T00:19:14.474Z,7.00
2022-09-13T00:24:17.564Z,5.28
2022-09-13T00:29:20.403Z,4.53
2022-09-13T00:34:24.714Z,5.85
2022-09-13T00:39:27.432Z,5.25
2022-09-13T00:44:55.157Z,6.10
2022-09-13T00:50:03.929Z,7.15
2022-09-13T00:55:13.064Z,6.30
2022-09-13T01:00:19.373Z,8.35
2022-09-13T01:05:27.726Z,7.03
2022-09-13T01:10:31.669Z,8.38
2022-09-13T01:15:34.372Z,9.85
2022-09-13T01:20:54.994Z,7.80
2022-09-13T01:26:32.375Z,8.52
2022-09-13T01:31:43.279Z,8.98
2022-09-13T01:37:09.290Z,9.25
2022-09-13T01:42:19.401Z,9.85
2022-09-13T01:47:28.999Z,10.80
2022-09-13T01:52:41.721Z,9.05
2022-09-13T01:57:51.576Z,8.48
2022-09-13T02:03:04.196Z,10.13
2022-09-13T02:08:12.917Z,11.57
2022-09-13T02:13:20.545Z,9.40
2022-09-13T02:18:30.977Z,10.65
2022-09-13T02:23:39.180Z,10.00
2022-09-13T02:33:53.117Z,8.60
2022-09-13T02:39:01.158Z,9.60
2022-09-13T02:54:28.453Z,8.90
2022-09-13T02:59:31.258Z,10.18
2022-09-13T03:04:36.209Z,9.75
2022-09-13T03:09:47.205Z,13.00
2022-09-13T03:14:57.544Z,9.70
2022-09-13T03:20:10.780Z,10.20
2022-09-13T03:25:25.443Z,9.82
2022-09-13T03:30:28.536Z,11.25
2022-09-13T03:35:39.775Z,11.18
2022-09-13T03:40:49.155Z,12.60
2022-09-13T03:45:55.519Z,16.05
2022-09-13T03:50:59.668Z,18.05
2022-09-13T03:56:03.346Z,15.90
2022-09-13T04:01:06.317Z,18.23
2022-09-13T04:06:11.670Z,16.83
2022-09-13T04:11:14.334Z,18.95
2022-09-13T04:16:17.575Z,21.65
2022-09-13T04:21:21.882Z,19.70
2022-09-13T04:26:24.561Z,18.27
2022-09-13T04:31:27.318Z,22.20
2022-09-13T04:36:32.032Z,20.10
2022-09-13T04:41:34.945Z,20.08
2022-09-13T04:46:37.665Z,20.38
2022-09-13T04:51:41.874Z,22.60
2022-09-13T04:56:45.448Z,22.35
2022-09-13T05:01:48.303Z,24.63
2022-09-13T05:06:52.480Z,23.67
2022-09-13T05:11:55.189Z,31.00
2022-09-13T05:16:57.898Z,24.95
2022-09-13T05:22:02.147Z,29.45
2022-09-13T05:27:05.678Z,28.48
2022-09-13T05:32:08.658Z,31.52
2022-09-13T05:37:12.788Z,32.83
2022-09-13T05:42:15.689Z,32.65
2022-09-13T05:47:18.433Z,29.75
2022-09-13T05:52:22.544Z,29.05
2022-09-13T05:57:25.327Z,32.67
2022-09-13T06:02:28.150Z,44.05
2022-09-13T06:07:32.428Z,55.78
2022-09-13T06:12:35.438Z,27.70
2022-09-13T06:17:38.299Z,32.13
2022-09-13T06:22:42.360Z,65.75
2022-09-13T06:27:45.229Z,30.05
2022-09-13T06:32:47.952Z,33.38
2022-09-13T06:37:52.404Z,37.08
2022-09-13T06:42:55.131Z,37.72
2022-09-13T06:47:58.181Z,28.30
2022-09-13T06:53:02.249Z,25.45
2022-09-13T06:58:05.032Z,26.40
2022-09-13T07:03:07.749Z,21.08
2022-09-13T07:08:11.815Z,24.17
2022-09-13T07:13:14.582Z,19.83
2022-09-13T07:18:17.281Z,23.60
2022-09-13T07:23:21.346Z,17.42
2022-09-13T07:28:27.352Z,16.10
2022-09-13T07:33:30.229Z,19.13
2022-09-13T07:38:35.721Z,20.15
2022-09-13T07:43:38.702Z,19.98
2022-09-13T07:48:43.233Z,17.58
2022-09-13T07:53:48.101Z,17.15
2022-09-13T07:58:52.676Z,16.63
2022-09-13T08:03:57.269Z,48.88
2022-09-13T08:09:01.701Z,20.00
2022-09-13T08:14:05.435Z,13.15
2022-09-13T08:19:09.447Z,39.88
2022-09-13T08:24:17.020Z,10.45
2022-09-13T08:29:19.790Z,34.40
2022-09-13T08:34:22.574Z,8.90
2022-09-13T08:39:29.183Z,9.20
2022-09-13T08:44:46.620Z,17.15
2022-09-13T08:49:53.298Z,8.32
2022-09-13T08:54:58.581Z,5.47
2022-09-13T09:00:09.700Z,6.78
2022-09-13T09:05:18.308Z,5.78
2022-09-13T09:10:27.404Z,5.20
2022-09-13T09:15:35.230Z,7.53
2022-09-13T09:20:42.461Z,9.98
2022-09-13T09:25:47.291Z,8.20
2022-09-13T09:31:00.026Z,5.18
2022-09-13T09:36:11.181Z,6.07
2022-09-13T09:41:27.112Z,5.38
2022-09-13T09:46:35.343Z,6.63
2022-09-13T09:51:38.205Z,7.73
2022-09-13T09:56:53.834Z,5.40
2022-09-13T10:01:57.816Z,5.75
2022-09-13T10:07:20.092Z,5.70
2022-09-13T10:12:29.353Z,7.40
2022-09-13T10:17:32.210Z,6.65
2022-09-13T10:22:34.987Z,5.05
2022-09-13T10:27:43.210Z,6.45
2022-09-13T10:32:56.570Z,6.07
2022-09-13T10:37:59.524Z,3.25
2022-09-13T10:43:08.372Z,5.50
2022-09-13T10:48:14.887Z,7.50
2022-09-13T10:53:34.614Z,6.15
2022-09-13T10:58:38.774Z,5.25
2022-09-13T11:04:04.547Z,13.73
2022-09-13T11:09:14.534Z,6.30
2022-09-13T11:14:32.836Z,5.43
2022-09-13T11:19:59.455Z,7.93
2022-09-13T11:25:14.943Z,4.97
2022-09-13T11:30:21.206Z,4.97
2022-09-13T11:35:44.874Z,9.30
2022-09-13T11:40:56.666Z,5.82
2022-09-13T11:46:09.873Z,20.55
2022-09-13T11:51:19.287Z,9.45
2022-09-13T11:56:27.491Z,5.00
2022-09-13T12:01:40.184Z,6.32
2022-09-13T12:06:47.391Z,8.88
2022-09-13T12:11:54.210Z,5.40
2022-09-13T12:17:04.741Z,5.32
2022-09-13T12:22:09.187Z,6.50
2022-09-13T12:27:23.133Z,10.45
2022-09-13T12:32:29.035Z,6.35
2022-09-13T12:37:50.041Z,8.38
2022-09-13T12:43:13.644Z,7.82
2022-09-13T12:48:40.497Z,6.18
2022-09-13T12:54:02.534Z,4.80
2022-09-13T12:59:28.167Z,7.13
2022-09-13T13:04:37.485Z,6.68
2022-09-13T13:09:44.252Z,39.90
2022-09-13T13:14:53.543Z,11.25
2022-09-13T13:19:57.950Z,61.63
2022-09-13T13:25:36.719Z,8.43
2022-09-13T13:35:49.061Z,9.60
2022-09-13T13:40:54.067Z,4.97
2022-09-13T13:46:16.101Z,7.07
2022-09-13T13:51:26.223Z,7.15
2022-09-13T13:56:50.524Z,8.95
2022-09-13T14:01:59.250Z,6.18
2022-09-13T14:07:19.520Z,5.55
2022-09-13T14:12:33.943Z,9.00
2022-09-13T14:18:14.784Z,7.57
2022-09-13T14:23:20.107Z,6.88
2022-09-13T14:28:24.171Z,6.28
2022-09-13T14:33:32.038Z,8.05
2022-09-13T14:38:37.489Z,9.80
2022-09-13T14:43:40.427Z,6.05
2022-09-13T14:48:50.173Z,6.15
2022-09-13T14:54:00.822Z,7.25
2022-09-13T14:59:06.597Z,5.00
2022-09-13T15:04:10.040Z,10.80
2022-09-13T15:09:28.567Z,4.82
2022-09-13T15:14:32.933Z,8.05
2022-09-13T15:19:41.785Z,9.30
2022-09-13T15:24:48.945Z,5.70
2022-09-13T15:29:53.905Z,5.93
2022-09-13T15:34:58.468Z,9.07
2022-09-13T15:40:16.794Z,5.38
2022-09-13T15:50:26.852Z,6.45
2022-09-13T15:55:32.376Z,11.13
2022-09-13T16:00:36.901Z,6.35
2022-09-13T16:05:39.895Z,7.30
2022-09-13T16:10:44.065Z,6.15
2022-09-13T16:15:47.245Z,6.65
2022-09-13T16:20:51.003Z,7.30
2022-09-13T16:25:58.114Z,6.13
2022-09-13T16:31:00.955Z,7.90
2022-09-13T16:36:04.125Z,4.38
2022-09-13T16:41:08.639Z,5.80
2022-09-13T16:46:13.505Z,3.38
2022-09-13T16:51:16.763Z,3.55
2022-09-13T16:56:22.754Z,6.65
2022-09-13T17:01:27.386Z,5.60
2022-09-13T17:06:30.285Z,12.43
2022-09-13T17:11:36.435Z,4.90
2022-09-13T17:16:41.370Z,9.68
2022-09-13T17:21:44.381Z,8.43
2022-09-13T17:26:48.812Z,6.47
2022-09-13T17:31:51.724Z,6.32
2022-09-13T17:36:54.704Z,8.00
2022-09-13T17:42:06.255Z,7.07
2022-09-13T17:47:09.086Z,6.60
2022-09-13T17:52:12.009Z,5.80
2022-09-13T17:57:16.313Z,5.03
2022-09-13T18:02:19.263Z,5.32
2022-09-13T18:07:22.213Z,8.52
2022-09-13T18:12:26.480Z,9.13
2022-09-13T18:17:29.240Z,4.55
2022-09-13T18:22:34.761Z,6.40
2022-09-13T18:27:38.999Z,6.10
2022-09-13T18:32:41.819Z,7.15
2022-09-13T18:37:44.713Z,5.45
2022-09-13T18:42:48.832Z,5.25
2022-09-13T18:47:51.656Z,5.18
2022-09-13T18:52:54.365Z,7.97
2022-09-13T18:57:58.579Z,6.80
2022-09-13T19:03:11.980Z,10.20
2022-09-13T19:08:15.623Z,6.00
2022-09-13T19:13:19.868Z,6.28
2022-09-13T19:18:22.654Z,7.53
2022-09-13T19:23:37.676Z,6.20
2022-09-13T19:29:00.107Z,9.15
2022-09-13T19:34:04.246Z,3.28
2022-09-13T19:39:08.820Z,5.40
2022-09-13T19:44:20.033Z,3.63
2022-09-13T19:49:23.162Z,5.10
2022-09-13T19:54:28.359Z,4.82
2022-09-13T19:59:42.508Z,5.95
2022-09-13T20:04:47.956Z,3.35
2022-09-13T20:09:51.301Z,12.45
2022-09-13T20:14:55.415Z,3.40
2022-09-13T20:19:58.474Z,5.55
2022-09-13T20:25:01.424Z,5.85
2022-09-13T20:30:06.485Z,3.45
2022-09-13T20:35:11.086Z,5.03
2022-09-13T20:40:15.038Z,4.95
2022-09-13T20:45:19.395Z,4.30
2022-09-13T20:50:22.122Z,5.47
2022-09-13T20:55:25.077Z,4.10
2022-09-13T21:00:29.135Z,5.53
2022-09-13T21:05:32.170Z,2.75
2022-09-13T21:10:35.586Z,4.05
2022-09-13T21:15:40.152Z,2.95
2022-09-13T21:20:42.973Z,6.72
2022-09-13T21:25:46.067Z,3.47
2022-09-13T21:30:58.408Z,3.92
2022-09-13T21:36:02.498Z,4.78
2022-09-13T21:41:07.648Z,4.68
2022-09-13T21:46:16.471Z,5.43
2022-09-13T21:51:21.552Z,4.50
2022-09-13T21:56:26.619Z,4.43
2022-09-13T22:01:33.162Z,4.85
2022-09-13T22:06:36.041Z,3.17
2022-09-13T22:11:43.572Z,4.80
2022-09-13T22:16:47.800Z,3.03
2022-09-13T22:21:54.015Z,2.42
2022-09-13T22:26:58.097Z,7.97
2022-09-13T22:32:02.456Z,6.05
2022-09-13T22:37:05.521Z,7.10
2022-09-13T22:42:08.492Z,5.03
2022-09-13T22:47:12.567Z,4.85
2022-09-13T22:52:15.286Z,3.50
2022-09-13T22:57:18.237Z,5.85
2022-09-13T23:02:22.290Z,8.23
2022-09-13T23:07:25.682Z,4.07
2022-09-13T23:12:30.410Z,8.60
2022-09-13T23:17:34.540Z,4.80
2022-09-13T23:22:37.297Z,4.90
2022-09-13T23:27:40.155Z,4.95
2022-09-13T23:32:47.463Z,6.93
2022-09-13T23:37:50.267Z,4.53
2022-09-13T23:42:52.980Z,6.35
2022-09-13T23:47:57.050Z,2.78
2022-09-13T23:53:00.408Z,6.13
2022-09-13T23:58:03.106Z,6.88
